createdAt,value
2023-05-16T00:00:56.073Z,2.28
2023-05-16T00:03:23.065Z,2.55
2023-05-16T00:05:50.775Z,2.78
2023-05-16T00:08:17.769Z,2.40
2023-05-16T00:10:44.806Z,2.78
2023-05-16T00:13:11.791Z,2.60
2023-05-16T00:15:38.769Z,2.85
2023-05-16T00:18:06.159Z,2.55
2023-05-16T00:20:33.141Z,2.67
2023-05-16T00:23:01.228Z,2.58
2023-05-16T00:25:28.912Z,2.40
2023-05-16T00:27:55.889Z,2.42
2023-05-16T00:30:22.910Z,2.58
2023-05-16T00:32:52.155Z,3.22
2023-05-16T00:35:19.124Z,2.67
2023-05-16T00:37:46.317Z,2.70
2023-05-16T00:40:13.393Z,3.38
2023-05-16T00:42:40.341Z,2.20
2023-05-16T00:45:08.291Z,3.03
2023-05-16T00:47:36.421Z,2.47
2023-05-16T00:50:04.161Z,2.85
2023-05-16T00:52:33.660Z,2.60
2023-05-16T00:55:01.490Z,2.40
2023-05-16T00:57:28.581Z,2.70
2023-05-16T00:59:55.800Z,2.47
2023-05-16T01:02:22.943Z,2.70
2023-05-16T01:04:51.839Z,2.47
2023-05-16T01:07:19.033Z,2.85
2023-05-16T01:09:46.183Z,2.90
2023-05-16T01:12:38.330Z,2.78
2023-05-16T01:15:08.645Z,2.33
2023-05-16T01:17:53.338Z,2.80
2023-05-16T01:20:59.719Z,2.83
2023-05-16T01:23:40.105Z,2.08
2023-05-16T01:26:28.545Z,2.70
2023-05-16T01:28:56.051Z,3.25
2023-05-16T01:31:24.308Z,2.42
2023-05-16T01:33:51.947Z,2.47
2023-05-16T01:36:33.170Z,2.70
2023-05-16T01:39:05.169Z,1.88
2023-05-16T01:41:58.475Z,2.53
2023-05-16T01:44:33.208Z,2.50
2023-05-16T01:47:03.760Z,3.10
2023-05-16T01:49:49.376Z,2.42
2023-05-16T01:52:23.872Z,2.28
2023-05-16T01:54:54.480Z,2.50
2023-05-16T01:57:26.313Z,3.45
2023-05-16T01:59:53.749Z,2.33
2023-05-16T02:02:21.388Z,2.50
2023-05-16T02:04:48.362Z,2.42
2023-05-16T02:07:16.090Z,2.22
2023-05-16T02:09:45.590Z,2.60
2023-05-16T02:12:12.754Z,3.28
2023-05-16T02:14:39.735Z,2.42
2023-05-16T02:17:07.170Z,2.53
2023-05-16T02:19:34.417Z,3.40
2023-05-16T02:22:01.371Z,2.75
2023-05-16T02:24:28.289Z,2.08
2023-05-16T02:26:55.890Z,2.10
2023-05-16T02:29:23.083Z,2.65
2023-05-16T02:31:50.053Z,2.72
2023-05-16T02:34:17.054Z,2.38
2023-05-16T02:36:44.017Z,2.00
2023-05-16T02:39:11.325Z,2.00
2023-05-16T02:41:38.297Z,2.45
2023-05-16T02:44:05.576Z,2.35
2023-05-16T02:46:34.941Z,2.30
2023-05-16T02:49:04.051Z,2.80
2023-05-16T02:51:31.468Z,2.03
2023-05-16T02:53:59.843Z,2.72
2023-05-16T02:56:27.630Z,2.35
2023-05-16T02:58:55.477Z,2.47
2023-05-16T03:01:22.704Z,2.63
2023-05-16T03:03:49.866Z,2.10
2023-05-16T03:06:16.931Z,2.25
2023-05-16T03:08:44.247Z,2.33
2023-05-16T03:11:11.258Z,2.55
2023-05-16T03:13:38.224Z,2.03
2023-05-16T03:16:06.172Z,2.17
2023-05-16T03:18:33.409Z,2.83
2023-05-16T03:21:01.499Z,2.00
2023-05-16T03:23:28.604Z,2.00
2023-05-16T03:25:56.364Z,2.00
2023-05-16T03:28:23.414Z,2.85
2023-05-16T03:30:50.399Z,2.42
2023-05-16T03:33:17.542Z,2.08
2023-05-16T03:35:44.894Z,2.08
2023-05-16T03:38:12.394Z,2.25
2023-05-16T03:40:40.543Z,2.67
2023-05-16T03:43:07.534Z,2.05
2023-05-16T03:45:34.761Z,2.50
2023-05-16T03:48:01.891Z,2.38
2023-05-16T03:50:28.939Z,2.38
2023-05-16T03:52:56.108Z,2.38
2023-05-16T03:55:23.093Z,2.53
2023-05-16T03:57:51.327Z,1.98
2023-05-16T04:00:18.452Z,2.55
2023-05-16T04:02:45.876Z,2.67
2023-05-16T04:05:14.100Z,2.45
2023-05-16T04:07:41.475Z,2.42
2023-05-16T04:10:10.139Z,2.45
2023-05-16T04:12:37.629Z,3.00
2023-05-16T04:15:06.230Z,2.17
2023-05-16T04:17:34.337Z,2.15
2023-05-16T04:20:01.566Z,2.20
2023-05-16T04:22:28.674Z,2.60
2023-05-16T04:24:55.705Z,2.10
2023-05-16T04:27:23.541Z,2.17
2023-05-16T04:29:50.725Z,2.20
2023-05-16T04:32:18.273Z,2.65
2023-05-16T04:34:46.761Z,2.35
2023-05-16T04:37:14.201Z,3.53
2023-05-16T04:39:42.674Z,2.97
2023-05-16T04:42:09.644Z,2.72
2023-05-16T04:44:36.575Z,2.85
2023-05-16T04:47:03.722Z,2.30
2023-05-16T04:49:30.835Z,2.50
2023-05-16T04:51:57.814Z,2.30
2023-05-16T04:54:24.795Z,2.55
2023-05-16T04:56:51.769Z,3.00
2023-05-16T04:59:18.677Z,2.35
2023-05-16T05:01:45.676Z,3.10
2023-05-16T05:04:12.730Z,2.53
2023-05-16T05:06:39.695Z,2.47
2023-05-16T05:09:06.829Z,2.63
2023-05-16T05:11:33.896Z,2.78
2023-05-16T05:14:01.089Z,3.00
2023-05-16T05:16:28.169Z,2.38
2023-05-16T05:18:55.224Z,2.90
2023-05-16T05:21:24.142Z,2.50
2023-05-16T05:23:51.395Z,3.25
2023-05-16T05:26:19.132Z,3.08
2023-05-16T05:28:53.847Z,2.25
2023-05-16T05:31:24.730Z,2.88
2023-05-16T05:33:51.795Z,2.70
2023-05-16T05:36:18.745Z,2.70
2023-05-16T05:38:45.839Z,2.78
2023-05-16T05:41:12.842Z,2.88
2023-05-16T05:43:39.767Z,2.67
2023-05-16T05:46:07.272Z,2.53
2023-05-16T05:48:34.565Z,2.28
2023-05-16T05:51:01.580Z,2.58
2023-05-16T05:53:28.567Z,2.45
2023-05-16T05:55:55.527Z,2.95
2023-05-16T05:58:22.644Z,2.33
2023-05-16T06:00:49.696Z,2.53
2023-05-16T06:03:16.710Z,2.58
2023-05-16T06:05:43.811Z,2.60
2023-05-16T06:08:11.030Z,2.38
2023-05-16T06:10:38.006Z,2.28
2023-05-16T06:13:04.966Z,2.55
2023-05-16T06:15:32.204Z,2.30
2023-05-16T06:17:59.524Z,2.17
2023-05-16T06:20:26.602Z,2.65
2023-05-16T06:22:53.654Z,1.70
2023-05-16T06:25:20.669Z,2.70
2023-05-16T15:19:35.698Z,1.23
2023-05-16T15:22:02.843Z,0.73
2023-05-16T15:24:29.953Z,0.80
2023-05-16T15:26:57.821Z,1.15
2023-05-16T15:29:26.334Z,0.90
2023-05-16T15:31:53.391Z,1.30
2023-05-16T15:34:20.489Z,1.40
2023-05-16T15:36:47.535Z,0.73
2023-05-16T15:39:14.554Z,0.80
2023-05-16T15:42:05.305Z,0.95
2023-05-16T15:44:28.560Z,0.98
2023-05-16T15:46:55.664Z,0.80
2023-05-16T15:49:22.798Z,1.20
2023-05-16T15:51:51.207Z,0.85
2023-05-16T15:54:20.071Z,1.20
2023-05-16T15:56:47.716Z,1.08
2023-05-16T15:59:14.716Z,1.17
2023-05-16T16:01:41.822Z,1.00
2023-05-16T16:04:08.975Z,1.10
2023-05-16T16:06:36.006Z,1.20
2023-05-16T16:09:04.095Z,0.93
2023-05-16T16:11:31.167Z,0.93
2023-05-16T16:13:58.175Z,0.80
2023-05-16T16:16:25.202Z,0.90
2023-05-16T16:18:53.574Z,0.77
2023-05-16T16:21:20.789Z,0.98
2023-05-16T16:23:47.902Z,1.10
2023-05-16T16:26:14.891Z,0.95
2023-05-16T16:28:42.227Z,1.02
2023-05-16T16:31:10.177Z,1.00
2023-05-16T16:33:37.256Z,0.90
2023-05-16T16:36:04.473Z,1.13
2023-05-16T16:38:31.665Z,0.70
2023-05-16T16:40:58.585Z,0.93
2023-05-16T16:43:25.591Z,1.00
2023-05-16T16:45:52.607Z,1.65
2023-05-16T16:48:19.792Z,0.90
2023-05-16T16:50:47.229Z,1.00
2023-05-16T16:53:14.363Z,0.90
2023-05-16T16:55:41.428Z,0.73
2023-05-16T16:58:08.494Z,0.80
2023-05-16T17:00:35.675Z,0.93
2023-05-16T17:03:05.013Z,1.08
2023-05-16T17:05:32.118Z,0.90
2023-05-16T17:07:59.151Z,1.00
2023-05-16T17:10:26.375Z,1.15
2023-05-16T17:12:54.630Z,0.80
2023-05-16T17:15:22.170Z,0.90
2023-05-16T17:17:49.521Z,0.90
2023-05-16T17:20:16.723Z,0.85
2023-05-16T17:22:44.744Z,1.65
2023-05-16T17:25:11.790Z,1.02
2023-05-16T17:27:38.773Z,0.85
2023-05-16T17:30:07.109Z,1.27
2023-05-16T17:32:34.296Z,1.15
2023-05-16T17:35:03.987Z,1.13
2023-05-16T17:37:31.061Z,0.90
2023-05-16T17:39:58.706Z,1.23
2023-05-16T17:42:25.835Z,1.17
2023-05-16T17:44:53.069Z,0.70
2023-05-16T17:47:20.419Z,1.27
2023-05-16T17:49:48.778Z,1.00
2023-05-16T17:52:15.811Z,1.10
2023-05-16T17:54:43.569Z,1.63
2023-05-16T17:57:10.698Z,1.20
2023-05-16T17:59:37.917Z,0.80
2023-05-16T18:02:09.872Z,1.25
2023-05-16T18:04:37.130Z,0.75
2023-05-16T18:07:04.166Z,1.20
2023-05-16T18:09:31.547Z,1.25
2023-05-16T18:11:58.529Z,0.88
2023-05-16T18:14:26.087Z,1.27
2023-05-16T18:16:53.088Z,1.10
2023-05-16T18:19:20.308Z,0.88
2023-05-16T18:21:47.313Z,0.80
2023-05-16T18:24:15.962Z,1.52
2023-05-16T18:26:44.529Z,1.02
2023-05-16T18:29:11.857Z,0.90
2023-05-16T18:31:41.211Z,1.00
2023-05-16T18:34:12.058Z,1.40
2023-05-16T18:36:39.200Z,1.77
2023-05-16T18:39:07.137Z,1.50
2023-05-16T18:41:34.292Z,1.50
2023-05-16T18:44:01.273Z,1.23
2023-05-16T18:46:28.400Z,1.38
2023-05-16T18:48:57.831Z,1.77
2023-05-16T18:51:25.744Z,1.17
2023-05-16T18:53:53.024Z,1.10
2023-05-16T18:56:20.011Z,1.10
2023-05-16T18:58:47.867Z,1.20
2023-05-16T19:01:14.883Z,1.10
2023-05-16T19:03:42.052Z,1.13
2023-05-16T19:06:09.118Z,1.30
2023-05-16T19:08:47.067Z,1.13
2023-05-16T19:11:16.774Z,1.42
2023-05-16T19:13:44.835Z,1.40
2023-05-16T19:16:11.931Z,1.40
2023-05-16T19:18:39.281Z,1.60
2023-05-16T19:21:13.194Z,1.83
2023-05-16T19:23:40.533Z,1.52
2023-05-16T19:26:07.692Z,1.40
2023-05-16T19:28:35.065Z,1.38
2023-05-16T19:31:02.091Z,1.65
2023-05-16T19:33:29.164Z,1.67
2023-05-16T19:35:58.547Z,1.90
2023-05-16T19:38:25.994Z,1.75
2023-05-16T19:40:53.334Z,1.60
2023-05-16T19:43:20.444Z,1.98
2023-05-16T19:45:47.569Z,1.80
2023-05-16T19:48:14.918Z,1.90
2023-05-16T19:50:42.581Z,1.42
2023-05-16T19:53:09.579Z,1.90
2023-05-16T19:55:38.173Z,1.60
2023-05-16T19:58:05.283Z,1.52
2023-05-16T20:00:32.448Z,2.00
2023-05-16T20:02:59.562Z,2.50
2023-05-16T20:05:27.139Z,1.77
2023-05-16T20:07:55.380Z,1.83
2023-05-16T20:10:22.420Z,1.98
2023-05-16T20:12:49.620Z,2.20
2023-05-16T20:15:16.713Z,2.00
2023-05-16T20:17:43.709Z,1.92
2023-05-16T20:20:11.181Z,2.28
2023-05-16T20:22:41.792Z,1.98
2023-05-16T20:25:10.887Z,2.33
2023-05-16T20:27:38.390Z,2.40
2023-05-16T20:30:06.919Z,2.22
2023-05-16T20:32:34.656Z,2.78
2023-05-16T20:35:04.577Z,3.08
2023-05-16T20:37:31.558Z,2.47
2023-05-16T20:39:58.510Z,2.38
2023-05-16T20:42:25.615Z,2.28
2023-05-16T20:44:52.615Z,3.67
2023-05-16T20:47:19.567Z,2.70
2023-05-16T20:49:46.511Z,2.90
2023-05-16T20:52:13.573Z,2.30
2023-05-16T20:54:41.879Z,3.10
2023-05-16T20:57:09.124Z,3.33
2023-05-16T20:59:40.501Z,2.90
2023-05-16T21:02:10.118Z,2.55
2023-05-16T21:04:38.271Z,2.78
2023-05-16T21:07:08.062Z,2.28
2023-05-16T21:09:36.922Z,3.10
2023-05-16T21:12:04.587Z,3.13
2023-05-16T21:14:31.622Z,2.70
2023-05-16T21:16:58.981Z,3.00
2023-05-16T21:19:26.072Z,2.17
2023-05-16T21:21:53.070Z,2.30
2023-05-16T21:24:20.042Z,3.47
2023-05-16T21:26:46.988Z,3.35
2023-05-16T21:29:13.923Z,2.30
2023-05-16T21:31:40.873Z,3.08
2023-05-16T21:34:09.661Z,2.70
2023-05-16T21:36:36.961Z,2.83
2023-05-16T21:39:04.030Z,3.13
2023-05-16T21:41:31.042Z,3.20
2023-05-16T21:43:57.985Z,2.88
2023-05-16T21:46:25.032Z,2.88
2023-05-16T21:48:52.158Z,2.40
2023-05-16T21:51:19.366Z,2.38
2023-05-16T21:53:46.609Z,2.63
2023-05-16T21:56:13.669Z,3.28
2023-05-16T21:58:42.413Z,2.60
2023-05-16T22:01:09.708Z,2.78
2023-05-16T22:03:36.767Z,2.50
2023-05-16T22:06:03.796Z,2.65
2023-05-16T22:08:31.006Z,2.78
2023-05-16T22:10:58.125Z,2.33
2023-05-16T22:13:25.247Z,2.55
2023-05-16T22:16:03.338Z,2.60
2023-05-16T22:18:32.893Z,2.45
2023-05-16T22:21:00.316Z,2.20
2023-05-16T22:23:27.272Z,2.53
2023-05-16T22:25:54.212Z,2.67
2023-05-16T22:28:21.174Z,2.67
2023-05-16T22:30:48.152Z,3.10
2023-05-16T22:33:15.504Z,2.45
2023-05-16T22:35:42.606Z,2.25
2023-05-16T22:38:09.602Z,2.20
2023-05-16T22:40:36.750Z,2.47
2023-05-16T22:43:04.134Z,2.05
2023-05-16T22:45:31.108Z,2.80
2023-05-16T22:47:58.150Z,2.47
2023-05-16T22:50:25.131Z,2.17
2023-05-16T22:52:52.070Z,2.60
2023-05-16T22:55:19.175Z,3.08
2023-05-16T22:57:46.312Z,2.50
2023-05-16T23:00:13.741Z,2.20
2023-05-16T23:02:40.782Z,2.53
2023-05-16T23:05:08.380Z,2.72
2023-05-16T23:07:35.452Z,2.47
2023-05-16T23:10:05.121Z,2.33
2023-05-16T23:12:32.174Z,2.65
2023-05-16T23:14:59.193Z,2.55
2023-05-16T23:17:26.239Z,2.15
2023-05-16T23:19:53.277Z,2.80
2023-05-16T23:22:20.399Z,2.90
2023-05-16T23:24:47.345Z,2.63
2023-05-16T23:27:14.435Z,2.53
2023-05-16T23:29:41.397Z,2.67
2023-05-16T23:32:08.588Z,2.50
2023-05-16T23:34:35.642Z,2.65
2023-05-16T23:37:02.648Z,2.47
2023-05-16T23:39:29.620Z,2.60
2023-05-16T23:41:56.576Z,2.63
2023-05-16T23:44:23.555Z,2.15
2023-05-16T23:46:50.626Z,2.58
2023-05-16T23:49:17.645Z,2.58
2023-05-16T23:51:56.816Z,2.53
2023-05-16T23:54:26.229Z,2.75
2023-05-16T23:56:53.419Z,2.83
2023-05-16T23:59:20.598Z,2.70
